sensor_id;sensor_type;location;lat;lon;timestamp;pressure;altitude;pressure_sealevel;temperature;humidity
52777;BME280;38656;54.260;20.822;2023-05-22T00:01:35;101640.31;;;20.06;62.59
52777;BME280;38656;54.260;20.822;2023-05-22T00:04:07;101639.84;;;20.11;61.76
52777;BME280;38656;54.260;20.822;2023-05-22T00:06:34;101639.59;;;20.22;60.95
52777;BME280;38656;54.260;20.822;2023-05-22T00:09:00;101641.59;;;20.20;61.79
52777;BME280;38656;54.260;20.822;2023-05-22T00:11:26;101641.66;;;19.84;63.64
52777;BME280;38656;54.260;20.822;2023-05-22T00:13:52;101640.66;;;19.85;65.29
52777;BME280;38656;54.260;20.822;2023-05-22T00:16:19;101642.41;;;19.94;64.79
52777;BME280;38656;54.260;20.822;2023-05-22T00:18:45;101641.84;;;20.09;63.62
52777;BME280;38656;54.260;20.822;2023-05-22T00:21:11;101645.78;;;19.96;64.36
52777;BME280;38656;54.260;20.822;2023-05-22T00:23:37;101641.03;;;20.08;62.85
52777;BME280;38656;54.260;20.822;2023-05-22T00:26:03;101645.16;;;20.03;62.57
52777;BME280;38656;54.260;20.822;2023-05-22T00:28:29;101642.97;;;19.80;64.48
52777;BME280;38656;54.260;20.822;2023-05-22T00:30:56;101636.97;;;19.32;67.82
52777;BME280;38656;54.260;20.822;2023-05-22T00:33:22;101644.16;;;19.86;64.41
52777;BME280;38656;54.260;20.822;2023-05-22T00:35:48;101635.22;;;19.77;64.51
52777;BME280;38656;54.260;20.822;2023-05-22T00:38:28;101641.38;;;19.87;62.50
52777;BME280;38656;54.260;20.822;2023-05-22T00:40:55;101644.25;;;19.76;63.95
52777;BME280;38656;54.260;20.822;2023-05-22T00:43:21;101632.13;;;19.72;64.10
52777;BME280;38656;54.260;20.822;2023-05-22T00:45:47;101640.28;;;19.80;64.24
52777;BME280;38656;54.260;20.822;2023-05-22T00:48:14;101644.34;;;19.84;62.97
52777;BME280;38656;54.260;20.822;2023-05-22T00:50:41;101642.84;;;19.72;64.34
52777;BME280;38656;54.260;20.822;2023-05-22T00:53:08;101646.94;;;19.58;65.26
52777;BME280;38656;54.260;20.822;2023-05-22T00:55:34;101645.84;;;19.69;64.39
52777;BME280;38656;54.260;20.822;2023-05-22T00:58:02;101643.78;;;19.62;61.87
52777;BME280;38656;54.260;20.822;2023-05-22T01:00:33;101644.84;;;19.34;66.33
52777;BME280;38656;54.260;20.822;2023-05-22T01:03:00;101641.94;;;19.45;63.12
52777;BME280;38656;54.260;20.822;2023-05-22T01:05:27;101643.31;;;19.49;62.17
52777;BME280;38656;54.260;20.822;2023-05-22T01:07:54;101645.69;;;19.52;62.85
52777;BME280;38656;54.260;20.822;2023-05-22T01:10:22;101637.50;;;19.36;65.13
52777;BME280;38656;54.260;20.822;2023-05-22T01:13:05;101648.34;;;19.34;66.39
52777;BME280;38656;54.260;20.822;2023-05-22T01:15:48;101641.19;;;19.35;66.23
52777;BME280;38656;54.260;20.822;2023-05-22T01:31:27;101644.19;;;19.04;66.30
52777;BME280;38656;54.260;20.822;2023-05-22T01:33:56;101641.41;;;18.96;66.80
52777;BME280;38656;54.260;20.822;2023-05-22T01:36:30;101644.03;;;18.68;69.07
52777;BME280;38656;54.260;20.822;2023-05-22T01:38:58;101647.06;;;18.92;67.72
52777;BME280;38656;54.260;20.822;2023-05-22T01:41:27;101637.19;;;18.93;67.74
52777;BME280;38656;54.260;20.822;2023-05-22T01:43:54;101635.03;;;18.69;67.50
52777;BME280;38656;54.260;20.822;2023-05-22T01:46:23;101634.13;;;18.88;66.66
52777;BME280;38656;54.260;20.822;2023-05-22T01:48:50;101634.97;;;18.88;66.43
52777;BME280;38656;54.260;20.822;2023-05-22T01:56:38;101631.25;;;18.62;67.54
52777;BME280;38656;54.260;20.822;2023-05-22T01:59:16;101633.59;;;18.74;67.02
52777;BME280;38656;54.260;20.822;2023-05-22T02:01:48;101637.63;;;18.51;66.86
52777;BME280;38656;54.260;20.822;2023-05-22T02:04:19;101642.72;;;18.44;66.59
52777;BME280;38656;54.260;20.822;2023-05-22T02:06:47;101629.69;;;18.59;64.90
52777;BME280;38656;54.260;20.822;2023-05-22T02:09:15;101633.69;;;18.45;66.76
52777;BME280;38656;54.260;20.822;2023-05-22T02:11:42;101639.38;;;18.32;68.18
52777;BME280;38656;54.260;20.822;2023-05-22T02:14:09;101635.75;;;18.24;69.11
52777;BME280;38656;54.260;20.822;2023-05-22T02:16:37;101631.25;;;18.14;71.02
52777;BME280;38656;54.260;20.822;2023-05-22T02:19:03;101636.84;;;18.31;68.77
52777;BME280;38656;54.260;20.822;2023-05-22T02:21:35;101631.59;;;18.39;67.96
52777;BME280;38656;54.260;20.822;2023-05-22T02:24:02;101636.59;;;18.14;69.66
52777;BME280;38656;54.260;20.822;2023-05-22T02:26:28;101636.28;;;18.37;67.42
52777;BME280;38656;54.260;20.822;2023-05-22T02:28:55;101632.72;;;18.46;66.04
52777;BME280;38656;54.260;20.822;2023-05-22T02:31:21;101626.94;;;18.41;67.31
52777;BME280;38656;54.260;20.822;2023-05-22T02:33:47;101628.25;;;18.37;67.93
52777;BME280;38656;54.260;20.822;2023-05-22T02:36:13;101626.38;;;18.47;67.05
52777;BME280;38656;54.260;20.822;2023-05-22T02:38:39;101628.63;;;18.42;67.13
52777;BME280;38656;54.260;20.822;2023-05-22T02:41:06;101626.38;;;18.47;66.75
52777;BME280;38656;54.260;20.822;2023-05-22T02:43:33;101618.22;;;18.39;66.52
52777;BME280;38656;54.260;20.822;2023-05-22T02:45:59;101626.75;;;18.25;67.05
52777;BME280;38656;54.260;20.822;2023-05-22T02:48:25;101620.47;;;18.44;66.02
52777;BME280;38656;54.260;20.822;2023-05-22T02:50:54;101618.66;;;18.44;66.99
52777;BME280;38656;54.260;20.822;2023-05-22T02:53:20;101620.50;;;18.34;67.80
52777;BME280;38656;54.260;20.822;2023-05-22T02:55:46;101620.22;;;18.37;66.67
52777;BME280;38656;54.260;20.822;2023-05-22T02:58:13;101612.78;;;18.31;67.92
52777;BME280;38656;54.260;20.822;2023-05-22T03:00:40;101614.00;;;18.36;67.19
52777;BME280;38656;54.260;20.822;2023-05-22T03:03:08;101608.13;;;18.33;67.47
52777;BME280;38656;54.260;20.822;2023-05-22T03:05:34;101606.41;;;18.42;66.32
52777;BME280;38656;54.260;20.822;2023-05-22T03:08:00;101616.22;;;18.51;65.51
52777;BME280;38656;54.260;20.822;2023-05-22T03:10:26;101609.16;;;18.60;65.41
52777;BME280;38656;54.260;20.822;2023-05-22T03:12:52;101618.16;;;18.58;66.17
52777;BME280;38656;54.260;20.822;2023-05-22T03:15:19;101612.22;;;18.65;65.74
52777;BME280;38656;54.260;20.822;2023-05-22T03:17:45;101606.50;;;18.87;62.65
52777;BME280;38656;54.260;20.822;2023-05-22T03:20:12;101606.03;;;18.64;67.47
52777;BME280;38656;54.260;20.822;2023-05-22T03:22:42;101596.44;;;18.71;67.60
52777;BME280;38656;54.260;20.822;2023-05-22T03:25:09;101602.25;;;18.95;65.54
52777;BME280;38656;54.260;20.822;2023-05-22T03:27:37;101594.03;;;19.06;65.40
52777;BME280;38656;54.260;20.822;2023-05-22T03:30:04;101605.59;;;19.24;65.58
52777;BME280;38656;54.260;20.822;2023-05-22T03:32:30;101604.56;;;19.07;67.79
52777;BME280;38656;54.260;20.822;2023-05-22T03:34:57;101605.66;;;19.69;65.19
52777;BME280;38656;54.260;20.822;2023-05-22T03:37:23;101601.59;;;19.83;64.46
52777;BME280;38656;54.260;20.822;2023-05-22T03:39:49;101596.91;;;20.03;63.90
52777;BME280;38656;54.260;20.822;2023-05-22T03:42:15;101596.94;;;19.85;66.52
52777;BME280;38656;54.260;20.822;2023-05-22T03:44:42;101599.69;;;20.19;66.01
52777;BME280;38656;54.260;20.822;2023-05-22T03:47:08;101599.66;;;20.45;66.35
52777;BME280;38656;54.260;20.822;2023-05-22T03:49:34;101598.69;;;20.55;65.43
52777;BME280;38656;54.260;20.822;2023-05-22T03:52:01;101602.56;;;20.95;63.19
52777;BME280;38656;54.260;20.822;2023-05-22T03:54:27;101607.75;;;21.55;61.00
52777;BME280;38656;54.260;20.822;2023-05-22T03:56:53;101603.81;;;21.25;62.04
52777;BME280;38656;54.260;20.822;2023-05-22T03:59:19;101602.63;;;21.11;62.23
52777;BME280;38656;54.260;20.822;2023-05-22T04:01:46;101606.56;;;21.66;62.08
52777;BME280;38656;54.260;20.822;2023-05-22T04:04:13;101605.44;;;20.93;62.83
52777;BME280;38656;54.260;20.822;2023-05-22T04:06:41;101600.19;;;21.92;60.67
52777;BME280;38656;54.260;20.822;2023-05-22T04:09:10;101601.47;;;22.13;60.17
52777;BME280;38656;54.260;20.822;2023-05-22T04:11:37;101596.28;;;22.19;58.16
52777;BME280;38656;54.260;20.822;2023-05-22T04:14:07;101590.03;;;22.19;58.58
52777;BME280;38656;54.260;20.822;2023-05-22T04:16:33;101597.50;;;21.84;59.48
52777;BME280;38656;54.260;20.822;2023-05-22T04:19:00;101598.09;;;22.27;58.99
52777;BME280;38656;54.260;20.822;2023-05-22T04:21:30;101595.59;;;22.25;58.96
52777;BME280;38656;54.260;20.822;2023-05-22T04:23:59;101591.09;;;21.77;60.28
52777;BME280;38656;54.260;20.822;2023-05-22T04:26:26;101587.34;;;22.19;60.68
52777;BME280;38656;54.260;20.822;2023-05-22T04:28:56;101587.50;;;22.17;60.56
52777;BME280;38656;54.260;20.822;2023-05-22T04:31:23;101585.78;;;22.80;59.05
52777;BME280;38656;54.260;20.822;2023-05-22T04:33:49;101583.16;;;21.42;59.94
52777;BME280;38656;54.260;20.822;2023-05-22T04:36:15;101571.53;;;22.40;59.24
52777;BME280;38656;54.260;20.822;2023-05-22T04:38:42;101581.00;;;22.99;56.84
52777;BME280;38656;54.260;20.822;2023-05-22T04:41:10;101585.97;;;22.39;58.07
52777;BME280;38656;54.260;20.822;2023-05-22T04:43:38;101581.03;;;21.95;61.17
52777;BME280;38656;54.260;20.822;2023-05-22T04:46:05;101573.56;;;23.32;56.28
52777;BME280;38656;54.260;20.822;2023-05-22T04:48:33;101570.88;;;23.32;55.09
52777;BME280;38656;54.260;20.822;2023-05-22T04:51:00;101576.00;;;24.18;53.98
52777;BME280;38656;54.260;20.822;2023-05-22T04:53:27;101569.38;;;23.68;56.03
52777;BME280;38656;54.260;20.822;2023-05-22T04:55:55;101561.69;;;25.42;50.93
52777;BME280;38656;54.260;20.822;2023-05-22T04:58:22;101575.34;;;25.84;47.57
52777;BME280;38656;54.260;20.822;2023-05-22T05:00:53;101565.13;;;26.08;47.73
52777;BME280;38656;54.260;20.822;2023-05-22T05:03:20;101560.44;;;24.20;51.67
52777;BME280;38656;54.260;20.822;2023-05-22T05:05:47;101563.13;;;24.50;51.45
52777;BME280;38656;54.260;20.822;2023-05-22T05:08:13;101571.81;;;22.54;55.03
52777;BME280;38656;54.260;20.822;2023-05-22T05:10:40;101566.72;;;24.87;51.73
52777;BME280;38656;54.260;20.822;2023-05-22T05:13:06;101565.19;;;22.00;60.30
52777;BME280;38656;54.260;20.822;2023-05-22T05:15:32;101570.81;;;22.47;61.36
52777;BME280;38656;54.260;20.822;2023-05-22T05:17:58;101564.94;;;24.13;58.47
52777;BME280;38656;54.260;20.822;2023-05-22T05:20:24;101561.88;;;24.16;57.70
52777;BME280;38656;54.260;20.822;2023-05-22T05:22:52;101561.19;;;24.59;54.34
52777;BME280;38656;54.260;20.822;2023-05-22T05:25:18;101558.16;;;25.20;53.40
52777;BME280;38656;54.260;20.822;2023-05-22T05:27:44;101561.97;;;25.76;52.57
52777;BME280;38656;54.260;20.822;2023-05-22T05:30:11;101557.56;;;24.67;53.07
52777;BME280;38656;54.260;20.822;2023-05-22T05:32:38;101558.50;;;24.29;58.68
52777;BME280;38656;54.260;20.822;2023-05-22T05:35:04;101563.94;;;25.17;56.48
52777;BME280;38656;54.260;20.822;2023-05-22T05:37:30;101559.53;;;26.16;52.57
52777;BME280;38656;54.260;20.822;2023-05-22T05:39:57;101555.56;;;27.15;49.12
52777;BME280;38656;54.260;20.822;2023-05-22T05:42:23;101561.38;;;27.06;46.78
52777;BME280;38656;54.260;20.822;2023-05-22T05:44:49;101559.75;;;27.18;46.78
52777;BME280;38656;54.260;20.822;2023-05-22T05:47:16;101547.22;;;27.10;48.79
52777;BME280;38656;54.260;20.822;2023-05-22T05:49:42;101546.81;;;27.80;45.88
52777;BME280;38656;54.260;20.822;2023-05-22T05:52:08;101552.25;;;27.73;48.22
52777;BME280;38656;54.260;20.822;2023-05-22T05:54:34;101553.44;;;28.18;45.44
52777;BME280;38656;54.260;20.822;2023-05-22T05:57:01;101552.47;;;27.45;45.62
52777;BME280;38656;54.260;20.822;2023-05-22T05:59:27;101550.00;;;28.49;45.51
52777;BME280;38656;54.260;20.822;2023-05-22T06:01:53;101553.84;;;28.28;46.41
52777;BME280;38656;54.260;20.822;2023-05-22T06:04:19;101543.22;;;28.72;44.59
52777;BME280;38656;54.260;20.822;2023-05-22T06:06:45;101544.59;;;28.42;44.83
52777;BME280;38656;54.260;20.822;2023-05-22T06:09:12;101543.31;;;28.45;44.58
52777;BME280;38656;54.260;20.822;2023-05-22T06:11:39;101547.69;;;28.98;42.68
52777;BME280;38656;54.260;20.822;2023-05-22T06:14:05;101542.66;;;28.95;43.87
52777;BME280;38656;54.260;20.822;2023-05-22T06:16:35;101544.78;;;28.93;41.83
52777;BME280;38656;54.260;20.822;2023-05-22T06:19:01;101540.56;;;28.97;42.02
52777;BME280;38656;54.260;20.822;2023-05-22T06:21:27;101541.09;;;28.81;40.74
52777;BME280;38656;54.260;20.822;2023-05-22T06:23:53;101541.06;;;29.44;40.94
52777;BME280;38656;54.260;20.822;2023-05-22T06:26:19;101537.25;;;29.96;41.63
52777;BME280;38656;54.260;20.822;2023-05-22T06:28:47;101530.97;;;29.52;43.72
52777;BME280;38656;54.260;20.822;2023-05-22T06:31:13;101532.19;;;28.99;41.80
52777;BME280;38656;54.260;20.822;2023-05-22T06:33:39;101531.28;;;30.06;41.94
52777;BME280;38656;54.260;20.822;2023-05-22T06:36:05;101536.81;;;30.17;40.65
52777;BME280;38656;54.260;20.822;2023-05-22T06:38:33;101533.53;;;28.83;41.55
52777;BME280;38656;54.260;20.822;2023-05-22T06:40:59;101531.28;;;30.06;42.39
52777;BME280;38656;54.260;20.822;2023-05-22T06:43:27;101534.75;;;30.50;40.83
52777;BME280;38656;54.260;20.822;2023-05-22T06:45:53;101534.50;;;30.51;39.55
52777;BME280;38656;54.260;20.822;2023-05-22T06:48:19;101533.00;;;29.56;40.22
52777;BME280;38656;54.260;20.822;2023-05-22T06:50:45;101525.00;;;30.42;39.65
52777;BME280;38656;54.260;20.822;2023-05-22T06:53:11;101532.13;;;30.43;39.34
52777;BME280;38656;54.260;20.822;2023-05-22T06:55:38;101520.66;;;30.53;39.07
52777;BME280;38656;54.260;20.822;2023-05-22T06:58:04;101521.13;;;31.46;38.53
52777;BME280;38656;54.260;20.822;2023-05-22T07:00:30;101515.66;;;30.80;38.98
52777;BME280;38656;54.260;20.822;2023-05-22T07:02:56;101515.06;;;30.78;38.91
52777;BME280;38656;54.260;20.822;2023-05-22T07:05:22;101519.09;;;31.06;39.80
52777;BME280;38656;54.260;20.822;2023-05-22T07:07:48;101519.25;;;30.50;39.84
52777;BME280;38656;54.260;20.822;2023-05-22T07:10:15;101515.75;;;31.04;39.90
52777;BME280;38656;54.260;20.822;2023-05-22T07:12:41;101513.09;;;31.75;39.60
52777;BME280;38656;54.260;20.822;2023-05-22T07:15:07;101518.19;;;31.59;37.96
52777;BME280;38656;54.260;20.822;2023-05-22T07:17:37;101522.84;;;31.71;37.67
52777;BME280;38656;54.260;20.822;2023-05-22T07:20:03;101516.75;;;31.92;37.50
52777;BME280;38656;54.260;20.822;2023-05-22T07:22:30;101516.88;;;32.38;36.86
52777;BME280;38656;54.260;20.822;2023-05-22T07:24:56;101520.34;;;32.34;35.96
52777;BME280;38656;54.260;20.822;2023-05-22T07:27:22;101513.75;;;32.18;35.72
52777;BME280;38656;54.260;20.822;2023-05-22T07:29:48;101517.66;;;33.25;35.34
52777;BME280;38656;54.260;20.822;2023-05-22T07:32:14;101521.50;;;33.24;35.19
52777;BME280;38656;54.260;20.822;2023-05-22T07:34:40;101512.66;;;32.88;35.32
52777;BME280;38656;54.260;20.822;2023-05-22T07:37:09;101521.78;;;33.11;33.87
52777;BME280;38656;54.260;20.822;2023-05-22T07:39:36;101508.19;;;33.33;34.44
52777;BME280;38656;54.260;20.822;2023-05-22T07:42:02;101514.22;;;32.55;33.47
52777;BME280;38656;54.260;20.822;2023-05-22T07:44:29;101511.13;;;32.23;33.79
52777;BME280;38656;54.260;20.822;2023-05-22T07:46:56;101509.50;;;33.13;32.25
52777;BME280;38656;54.260;20.822;2023-05-22T07:49:23;101505.72;;;33.48;31.95
52777;BME280;38656;54.260;20.822;2023-05-22T07:51:49;101505.03;;;33.07;32.52
52777;BME280;38656;54.260;20.822;2023-05-22T07:54:16;101502.47;;;33.01;32.61
52777;BME280;38656;54.260;20.822;2023-05-22T07:56:43;101501.72;;;33.95;31.29
52777;BME280;38656;54.260;20.822;2023-05-22T07:59:10;101503.66;;;34.44;32.13
52777;BME280;38656;54.260;20.822;2023-05-22T08:01:40;101508.28;;;33.38;29.34
52777;BME280;38656;54.260;20.822;2023-05-22T08:04:07;101505.84;;;34.20;30.91
52777;BME280;38656;54.260;20.822;2023-05-22T08:06:33;101501.59;;;33.00;30.15
52777;BME280;38656;54.260;20.822;2023-05-22T08:09:03;101498.44;;;33.20;30.09
52777;BME280;38656;54.260;20.822;2023-05-22T08:11:29;101505.19;;;33.34;30.02
52777;BME280;38656;54.260;20.822;2023-05-22T08:13:56;101502.44;;;32.55;29.63
52777;BME280;38656;54.260;20.822;2023-05-22T08:16:22;101507.06;;;32.25;29.90
52777;BME280;38656;54.260;20.822;2023-05-22T08:18:48;101501.03;;;32.81;30.72
52777;BME280;38656;54.260;20.822;2023-05-22T08:21:15;101496.16;;;33.17;29.43
52777;BME280;38656;54.260;20.822;2023-05-22T08:23:41;101496.41;;;33.32;29.69
52777;BME280;38656;54.260;20.822;2023-05-22T08:26:07;101501.19;;;33.76;30.30
52777;BME280;38656;54.260;20.822;2023-05-22T08:28:34;101495.13;;;33.74;28.92
52777;BME280;38656;54.260;20.822;2023-05-22T08:31:00;101492.25;;;33.47;28.79
52777;BME280;38656;54.260;20.822;2023-05-22T08:33:27;101488.38;;;33.82;27.76
52777;BME280;38656;54.260;20.822;2023-05-22T08:35:53;101493.06;;;32.96;28.17
52777;BME280;38656;54.260;20.822;2023-05-22T08:38:19;101498.34;;;33.71;28.01
52777;BME280;38656;54.260;20.822;2023-05-22T08:40:47;101494.50;;;33.89;27.79
52777;BME280;38656;54.260;20.822;2023-05-22T08:43:15;101488.63;;;34.02;28.85
52777;BME280;38656;54.260;20.822;2023-05-22T08:45:41;101489.44;;;33.42;26.98
52777;BME280;38656;54.260;20.822;2023-05-22T08:48:11;101490.44;;;33.36;28.55
52777;BME280;38656;54.260;20.822;2023-05-22T08:50:41;101496.72;;;33.53;27.34
52777;BME280;38656;54.260;20.822;2023-05-22T08:53:11;101487.69;;;34.63;25.77
52777;BME280;38656;54.260;20.822;2023-05-22T08:55:39;101486.47;;;35.14;26.90
52777;BME280;38656;54.260;20.822;2023-05-22T08:58:06;101482.59;;;33.61;27.32
52777;BME280;38656;54.260;20.822;2023-05-22T09:00:33;101477.50;;;33.70;28.14
52777;BME280;38656;54.260;20.822;2023-05-22T09:02:59;101471.53;;;34.39;27.15
52777;BME280;38656;54.260;20.822;2023-05-22T09:05:26;101470.03;;;33.09;27.74
52777;BME280;38656;54.260;20.822;2023-05-22T09:07:56;101465.84;;;33.58;26.76
52777;BME280;38656;54.260;20.822;2023-05-22T09:10:22;101467.13;;;34.16;25.91
52777;BME280;38656;54.260;20.822;2023-05-22T09:13:05;101457.72;;;34.89;26.11
52777;BME280;38656;54.260;20.822;2023-05-22T09:15:34;101470.84;;;34.27;25.56
52777;BME280;38656;54.260;20.822;2023-05-22T09:18:02;101456.56;;;35.60;24.22
52777;BME280;38656;54.260;20.822;2023-05-22T09:20:33;101454.69;;;36.39;24.27
52777;BME280;38656;54.260;20.822;2023-05-22T09:22:59;101460.34;;;36.02;24.65
52777;BME280;38656;54.260;20.822;2023-05-22T09:25:27;101457.91;;;35.09;24.82
52777;BME280;38656;54.260;20.822;2023-05-22T09:27:53;101456.06;;;34.28;24.77
52777;BME280;38656;54.260;20.822;2023-05-22T09:30:20;101448.91;;;35.24;24.96
52777;BME280;38656;54.260;20.822;2023-05-22T09:32:48;101448.38;;;36.54;24.12
52777;BME280;38656;54.260;20.822;2023-05-22T09:35:14;101450.41;;;35.42;24.26
52777;BME280;38656;54.260;20.822;2023-05-22T09:37:41;101453.69;;;34.15;26.05
52777;BME280;38656;54.260;20.822;2023-05-22T09:40:11;101447.56;;;34.89;24.66
52777;BME280;38656;54.260;20.822;2023-05-22T09:42:42;101447.59;;;34.62;24.62
52777;BME280;38656;54.260;20.822;2023-05-22T09:45:08;101449.31;;;34.19;23.71
52777;BME280;38656;54.260;20.822;2023-05-22T09:47:35;101444.75;;;34.79;25.01
52777;BME280;38656;54.260;20.822;2023-05-22T09:50:03;101446.22;;;32.93;25.79
52777;BME280;38656;54.260;20.822;2023-05-22T09:52:35;101440.59;;;32.66;26.49
52777;BME280;38656;54.260;20.822;2023-05-22T09:55:05;101438.34;;;33.30;26.46
52777;BME280;38656;54.260;20.822;2023-05-22T09:57:42;101439.00;;;32.70;28.62
52777;BME280;38656;54.260;20.822;2023-05-22T10:00:11;101431.72;;;34.97;26.19
52777;BME280;38656;54.260;20.822;2023-05-22T10:02:43;101439.47;;;33.74;27.10
52777;BME280;38656;54.260;20.822;2023-05-22T10:05:11;101429.78;;;32.76;26.83
52777;BME280;38656;54.260;20.822;2023-05-22T10:07:47;101440.16;;;32.74;27.08
52777;BME280;38656;54.260;20.822;2023-05-22T10:10:22;101432.38;;;33.33;26.76
52777;BME280;38656;54.260;20.822;2023-05-22T10:12:56;101437.78;;;32.94;27.35
52777;BME280;38656;54.260;20.822;2023-05-22T10:15:26;101422.41;;;32.31;27.87
52777;BME280;38656;54.260;20.822;2023-05-22T10:17:52;101432.28;;;33.11;27.39
52777;BME280;38656;54.260;20.822;2023-05-22T10:20:19;101426.41;;;32.69;27.22
52777;BME280;38656;54.260;20.822;2023-05-22T10:22:46;101422.16;;;32.32;27.05
52777;BME280;38656;54.260;20.822;2023-05-22T10:25:17;101420.25;;;32.95;27.58
52777;BME280;38656;54.260;20.822;2023-05-22T10:27:43;101417.66;;;34.61;26.65
52777;BME280;38656;54.260;20.822;2023-05-22T10:35:55;101409.38;;;34.83;25.33
52777;BME280;38656;54.260;20.822;2023-05-22T10:38:49;101405.50;;;33.30;25.99
52777;BME280;38656;54.260;20.822;2023-05-22T10:41:18;101404.34;;;32.75;26.93
52777;BME280;38656;54.260;20.822;2023-05-22T10:43:48;101399.19;;;35.26;26.06
52777;BME280;38656;54.260;20.822;2023-05-22T10:46:14;101409.59;;;33.94;26.07
52777;BME280;38656;54.260;20.822;2023-05-22T10:48:54;101397.47;;;34.72;25.86
52777;BME280;38656;54.260;20.822;2023-05-22T10:51:23;101393.69;;;35.21;24.47
52777;BME280;38656;54.260;20.822;2023-05-22T10:53:57;101399.44;;;35.67;25.13
52777;BME280;38656;54.260;20.822;2023-05-22T10:56:31;101387.16;;;35.27;25.55
52777;BME280;38656;54.260;20.822;2023-05-22T10:58:59;101396.84;;;33.83;25.08
52777;BME280;38656;54.260;20.822;2023-05-22T11:01:30;101382.53;;;34.90;24.69
52777;BME280;38656;54.260;20.822;2023-05-22T11:09:19;101374.25;;;35.96;23.32
52777;BME280;38656;54.260;20.822;2023-05-22T11:17:26;101375.75;;;33.83;25.00
52777;BME280;38656;54.260;20.822;2023-05-22T11:19:57;101370.28;;;34.11;25.77
52777;BME280;38656;54.260;20.822;2023-05-22T11:22:30;101362.72;;;35.99;24.44
52777;BME280;38656;54.260;20.822;2023-05-22T11:24:56;101366.53;;;35.93;23.49
52777;BME280;38656;54.260;20.822;2023-05-22T11:27:22;101364.06;;;37.15;22.79
52777;BME280;38656;54.260;20.822;2023-05-22T11:29:49;101364.84;;;34.16;24.73
52777;BME280;38656;54.260;20.822;2023-05-22T11:32:16;101360.50;;;31.67;26.35
52777;BME280;38656;54.260;20.822;2023-05-22T11:34:46;101359.50;;;34.26;25.64
52777;BME280;38656;54.260;20.822;2023-05-22T11:37:12;101355.94;;;33.54;25.62
52777;BME280;38656;54.260;20.822;2023-05-22T11:39:38;101358.03;;;34.18;25.30
52777;BME280;38656;54.260;20.822;2023-05-22T11:42:05;101348.44;;;30.92;28.52
52777;BME280;38656;54.260;20.822;2023-05-22T11:44:31;101350.13;;;30.93;27.25
52777;BME280;38656;54.260;20.822;2023-05-22T11:46:57;101352.16;;;30.01;28.45
52777;BME280;38656;54.260;20.822;2023-05-22T11:49:24;101348.81;;;33.53;26.82
52777;BME280;38656;54.260;20.822;2023-05-22T11:51:51;101348.25;;;34.00;26.23
52777;BME280;38656;54.260;20.822;2023-05-22T11:54:17;101353.31;;;34.41;26.24
52777;BME280;38656;54.260;20.822;2023-05-22T11:56:44;101350.94;;;34.22;25.78
52777;BME280;38656;54.260;20.822;2023-05-22T11:59:11;101341.94;;;31.16;28.98
52777;BME280;38656;54.260;20.822;2023-05-22T12:01:37;101345.22;;;32.57;27.33
52777;BME280;38656;54.260;20.822;2023-05-22T12:04:04;101342.88;;;33.39;27.15
52777;BME280;38656;54.260;20.822;2023-05-22T12:06:30;101336.47;;;33.73;27.18
52777;BME280;38656;54.260;20.822;2023-05-22T12:08:59;101338.75;;;33.37;27.39
52777;BME280;38656;54.260;20.822;2023-05-22T12:11:26;101339.56;;;33.59;27.95
52777;BME280;38656;54.260;20.822;2023-05-22T12:14:05;101335.03;;;32.70;28.10
52777;BME280;38656;54.260;20.822;2023-05-22T12:16:35;101335.34;;;32.39;28.09
52777;BME280;38656;54.260;20.822;2023-05-22T12:19:06;101334.69;;;32.83;28.21
52777;BME280;38656;54.260;20.822;2023-05-22T12:21:33;101335.41;;;32.95;27.84
52777;BME280;38656;54.260;20.822;2023-05-22T12:24:05;101327.22;;;32.61;28.22
52777;BME280;38656;54.260;20.822;2023-05-22T12:26:31;101331.03;;;32.26;29.08
52777;BME280;38656;54.260;20.822;2023-05-22T12:28:58;101335.28;;;32.51;29.02
52777;BME280;38656;54.260;20.822;2023-05-22T12:31:25;101325.72;;;32.37;29.10
52777;BME280;38656;54.260;20.822;2023-05-22T12:33:55;101332.16;;;32.76;27.75
52777;BME280;38656;54.260;20.822;2023-05-22T12:36:40;101326.59;;;33.10;27.80
52777;BME280;38656;54.260;20.822;2023-05-22T12:39:15;101328.56;;;32.76;26.40
52777;BME280;38656;54.260;20.822;2023-05-22T12:41:42;101318.84;;;33.68;26.82
52777;BME280;38656;54.260;20.822;2023-05-22T12:44:08;101315.34;;;34.00;27.00
52777;BME280;38656;54.260;20.822;2023-05-22T12:46:35;101317.88;;;33.13;27.37
52777;BME280;38656;54.260;20.822;2023-05-22T12:49:01;101313.88;;;34.20;24.30
52777;BME280;38656;54.260;20.822;2023-05-22T12:51:29;101314.75;;;33.05;26.27
52777;BME280;38656;54.260;20.822;2023-05-22T12:53:59;101313.28;;;33.19;25.49
52777;BME280;38656;54.260;20.822;2023-05-22T12:56:26;101304.06;;;33.69;26.03
52777;BME280;38656;54.260;20.822;2023-05-22T12:58:52;101302.06;;;33.87;26.27
52777;BME280;38656;54.260;20.822;2023-05-22T13:01:19;101303.94;;;34.09;25.43
52777;BME280;38656;54.260;20.822;2023-05-22T13:03:46;101303.47;;;33.90;24.03
52777;BME280;38656;54.260;20.822;2023-05-22T13:06:12;101295.66;;;34.73;24.31
52777;BME280;38656;54.260;20.822;2023-05-22T13:08:38;101295.47;;;35.43;24.92
52777;BME280;38656;54.260;20.822;2023-05-22T13:11:05;101297.22;;;34.64;25.57
52777;BME280;38656;54.260;20.822;2023-05-22T13:13:31;101293.72;;;34.69;26.37
52777;BME280;38656;54.260;20.822;2023-05-22T13:15:57;101294.72;;;35.69;24.91
52777;BME280;38656;54.260;20.822;2023-05-22T13:18:23;101289.75;;;35.50;23.50